createdAt,value
2023-03-31T00:02:44.919Z,3.61
2023-03-31T00:07:51.153Z,4.19
2023-03-31T00:12:53.867Z,4.00
2023-03-31T00:18:01.128Z,4.26
2023-03-31T00:23:06.820Z,4.34
2023-03-31T00:28:09.660Z,4.23
2023-03-31T00:33:12.737Z,4.21
2023-03-31T00:38:15.620Z,4.06
2023-03-31T00:43:39.974Z,4.29
2023-03-31T00:48:58.151Z,4.04
2023-03-31T00:54:06.405Z,3.94
2023-03-31T00:59:12.620Z,3.66
2023-03-31T01:04:22.923Z,3.98
2023-03-31T01:09:26.746Z,3.52
2023-03-31T01:14:32.344Z,3.70
2023-03-31T01:20:02.449Z,4.14
2023-03-31T01:25:34.686Z,3.58
2023-03-31T01:30:49.931Z,4.18
2023-03-31T01:36:16.945Z,4.24
2023-03-31T01:41:38.065Z,4.19
2023-03-31T01:46:56.053Z,4.16
2023-03-31T01:52:13.483Z,4.00
2023-03-31T01:57:20.034Z,3.70
2023-03-31T02:02:31.009Z,3.46
2023-03-31T02:07:44.874Z,3.80
2023-03-31T02:12:50.678Z,4.03
2023-03-31T02:17:56.660Z,3.80
2023-03-31T02:23:03.040Z,3.50
2023-03-31T02:28:13.108Z,3.73
2023-03-31T02:33:17.760Z,3.92
2023-03-31T02:38:21.100Z,3.94
2023-03-31T02:43:24.458Z,3.90
2023-03-31T02:48:41.071Z,3.87
2023-03-31T02:54:11.345Z,4.02
2023-03-31T02:59:42.635Z,3.79
2023-03-31T03:04:54.107Z,3.75
2023-03-31T03:10:07.712Z,3.32
2023-03-31T03:15:32.894Z,3.77
2023-03-31T03:20:36.219Z,3.83
2023-03-31T03:25:39.093Z,3.73
2023-03-31T03:30:42.780Z,3.90
2023-03-31T03:35:45.614Z,3.46
2023-03-31T03:40:50.205Z,3.59
2023-03-31T03:45:53.209Z,4.15
2023-03-31T03:50:55.866Z,4.11
2023-03-31T03:55:59.655Z,3.76
2023-03-31T04:01:02.930Z,4.08
2023-03-31T04:06:06.147Z,4.50
2023-03-31T04:11:18.095Z,4.45
2023-03-31T04:16:23.984Z,4.61
2023-03-31T04:21:26.705Z,4.91
2023-03-31T04:26:43.658Z,4.89
2023-03-31T04:31:48.068Z,5.44
2023-03-31T04:36:51.779Z,5.86
2023-03-31T04:41:55.536Z,6.51
2023-03-31T04:46:59.747Z,6.44
2023-03-31T04:52:03.422Z,6.07
2023-03-31T04:57:06.554Z,5.86
2023-03-31T05:02:09.537Z,6.10
2023-03-31T05:07:11.945Z,6.04
2023-03-31T05:12:14.925Z,6.33
2023-03-31T05:17:18.204Z,6.27
2023-03-31T05:22:22.207Z,6.75
2023-03-31T05:27:25.553Z,7.26
2023-03-31T05:32:29.289Z,7.81
2023-03-31T05:37:34.227Z,7.39
2023-03-31T05:42:48.545Z,7.07
2023-03-31T05:49:08.744Z,7.17
2023-03-31T05:54:14.433Z,6.95
2023-03-31T06:00:12.126Z,7.34
2023-03-31T06:05:17.805Z,7.30
2023-03-31T06:10:22.479Z,7.90
2023-03-31T06:15:29.702Z,7.54
2023-03-31T06:20:35.780Z,7.78
2023-03-31T06:25:50.253Z,7.17
2023-03-31T06:31:11.761Z,7.26
2023-03-31T06:36:18.997Z,7.06
2023-03-31T06:41:51.813Z,7.14
2023-03-31T06:47:03.576Z,6.96
2023-03-31T06:52:06.648Z,7.28
2023-03-31T06:57:10.602Z,7.23
2023-03-31T07:02:14.977Z,7.50
2023-03-31T07:07:18.551Z,7.38
2023-03-31T07:12:22.136Z,7.56
2023-03-31T07:17:25.789Z,7.48
2023-03-31T07:22:29.429Z,7.69
2023-03-31T07:27:39.578Z,7.69
2023-03-31T07:32:44.138Z,7.68
2023-03-31T07:38:03.963Z,7.79
2023-03-31T07:43:12.464Z,8.00
2023-03-31T07:48:15.121Z,8.00
2023-03-31T07:53:19.029Z,8.05
2023-03-31T07:58:22.043Z,7.94
2023-03-31T08:03:25.437Z,7.81
2023-03-31T08:08:28.444Z,7.58
2023-03-31T08:13:31.773Z,7.59
2023-03-31T08:18:35.976Z,7.85
2023-03-31T08:23:39.107Z,7.90
2023-03-31T08:28:43.407Z,7.81
2023-03-31T08:33:55.860Z,7.86
2023-03-31T08:38:59.180Z,7.88
2023-03-31T08:44:09.978Z,8.05
2023-03-31T08:49:17.183Z,8.12
2023-03-31T08:54:26.590Z,8.18
2023-03-31T08:59:33.536Z,8.35
2023-03-31T09:05:08.198Z,8.50
2023-03-31T09:10:23.976Z,8.71
2023-03-31T09:15:39.727Z,8.63
2023-03-31T09:20:50.040Z,8.62
2023-03-31T09:25:58.073Z,8.68
2023-03-31T09:31:28.408Z,8.69
2023-03-31T09:37:47.517Z,8.70
2023-03-31T09:43:03.196Z,8.59
2023-03-31T09:48:14.036Z,8.53
2023-03-31T09:53:40.607Z,8.66
2023-03-31T09:58:47.272Z,8.73
2023-03-31T10:03:54.346Z,8.67
2023-03-31T10:09:03.991Z,8.32
2023-03-31T10:14:17.693Z,8.42
2023-03-31T10:19:24.676Z,8.51
2023-03-31T10:24:37.592Z,8.34
2023-03-31T10:29:42.203Z,8.25
2023-03-31T10:34:45.101Z,8.15
2023-03-31T10:39:49.717Z,7.91
2023-03-31T10:45:37.049Z,8.18
2023-03-31T10:51:14.929Z,8.36
2023-03-31T10:56:48.999Z,8.54
2023-03-31T11:02:14.831Z,8.76
2023-03-31T11:07:45.453Z,8.94
2023-03-31T11:13:33.312Z,9.08
2023-03-31T11:19:23.160Z,8.96
2023-03-31T11:24:41.622Z,9.14
2023-03-31T11:29:44.712Z,9.47
2023-03-31T11:35:00.390Z,9.62
2023-03-31T11:40:15.398Z,9.44
2023-03-31T11:45:42.114Z,9.32
2023-03-31T11:50:50.111Z,9.26
2023-03-31T11:55:56.382Z,9.53
2023-03-31T12:01:18.525Z,9.61
2023-03-31T12:06:26.169Z,9.41
2023-03-31T12:11:53.731Z,9.47
2023-03-31T12:17:05.996Z,9.18
2023-03-31T12:22:13.157Z,9.18
2023-03-31T12:27:40.919Z,8.96
2023-03-31T12:33:11.540Z,8.74
2023-03-31T12:46:25.750Z,8.38
2023-03-31T12:51:45.585Z,8.68
2023-03-31T12:57:02.247Z,8.70
2023-03-31T13:02:27.261Z,8.75
2023-03-31T13:07:30.718Z,8.83
2023-03-31T13:12:35.898Z,8.79
2023-03-31T13:17:42.821Z,8.70
2023-03-31T13:22:50.851Z,8.75
2023-03-31T13:27:54.622Z,8.52
2023-03-31T13:33:25.234Z,8.80
2023-03-31T13:38:27.525Z,8.84
2023-03-31T13:43:33.307Z,8.93
2023-03-31T13:49:02.132Z,8.93
2023-03-31T13:54:20.403Z,8.97
2023-03-31T14:00:01.892Z,8.94
2023-03-31T14:05:31.976Z,8.92
2023-03-31T14:10:37.720Z,8.76
2023-03-31T14:16:00.090Z,8.99
2023-03-31T14:21:06.543Z,9.00
2023-03-31T14:26:18.448Z,9.13
2023-03-31T14:31:45.175Z,9.17
2023-03-31T14:36:51.849Z,9.14
2023-03-31T14:41:58.327Z,9.19
2023-03-31T14:47:00.839Z,9.15
2023-03-31T14:52:20.232Z,9.24
2023-03-31T14:57:33.035Z,9.26
2023-03-31T15:02:39.544Z,9.31
2023-03-31T15:07:41.908Z,9.33
2023-03-31T15:12:44.445Z,9.31
2023-03-31T15:17:48.021Z,9.41
2023-03-31T15:22:50.980Z,9.33
2023-03-31T15:28:01.867Z,9.32
2023-03-31T15:33:18.381Z,9.22
2023-03-31T15:38:23.748Z,9.20
2023-03-31T15:43:52.745Z,9.09
2023-03-31T15:48:56.221Z,9.03
2023-03-31T15:53:59.868Z,8.86
2023-03-31T15:59:07.086Z,9.01
2023-03-31T16:04:13.450Z,8.86
2023-03-31T16:09:24.448Z,8.91
2023-03-31T16:14:33.449Z,8.92
2023-03-31T16:19:46.672Z,8.68
2023-03-31T16:24:49.751Z,8.76
2023-03-31T16:30:07.752Z,8.81
2023-03-31T16:35:10.988Z,8.75
2023-03-31T16:40:14.065Z,8.67
2023-03-31T16:45:16.862Z,8.59
2023-03-31T16:50:19.584Z,8.61
2023-03-31T16:55:22.045Z,8.54
2023-03-31T17:00:24.451Z,8.73
2023-03-31T17:05:26.817Z,8.65
2023-03-31T17:10:29.279Z,8.48
2023-03-31T17:15:32.029Z,8.57
2023-03-31T17:20:35.105Z,8.50
2023-03-31T17:25:38.054Z,8.39
2023-03-31T17:30:44.402Z,8.29
2023-03-31T17:35:46.969Z,8.32
2023-03-31T17:40:49.359Z,8.39
2023-03-31T17:45:51.694Z,8.30
2023-03-31T17:50:54.820Z,8.14
2023-03-31T17:55:57.787Z,7.96
2023-03-31T18:01:00.616Z,7.81
2023-03-31T18:06:08.348Z,7.79
2023-03-31T18:11:11.537Z,7.77
2023-03-31T18:16:14.125Z,7.74
2023-03-31T18:21:16.479Z,7.72
2023-03-31T18:26:19.965Z,7.58
2023-03-31T18:31:22.825Z,7.46
2023-03-31T18:36:28.644Z,7.31
2023-03-31T18:41:31.372Z,7.25
2023-03-31T18:46:33.700Z,7.23
2023-03-31T18:51:36.320Z,7.26
2023-03-31T18:56:38.630Z,7.20
2023-03-31T19:01:41.085Z,6.94
2023-03-31T19:06:43.444Z,7.11
2023-03-31T19:11:46.012Z,6.89
2023-03-31T19:16:48.561Z,6.82
2023-03-31T19:21:52.614Z,6.86
2023-03-31T19:26:58.080Z,6.60
2023-03-31T19:32:00.696Z,6.67
2023-03-31T19:37:04.089Z,6.47
2023-03-31T19:42:06.607Z,6.63
2023-03-31T19:47:08.936Z,6.64
2023-03-31T19:52:11.353Z,6.64
2023-03-31T19:57:13.778Z,6.51
2023-03-31T20:02:16.764Z,6.48
2023-03-31T20:07:19.930Z,6.60
2023-03-31T20:12:24.102Z,6.69
2023-03-31T20:17:26.714Z,6.57
2023-03-31T20:22:30.064Z,6.45
2023-03-31T20:27:32.805Z,6.65
2023-03-31T20:32:35.885Z,6.69
2023-03-31T20:37:38.327Z,6.51
2023-03-31T20:42:41.810Z,6.45
2023-03-31T20:47:44.431Z,6.32
2023-03-31T20:52:47.933Z,6.32
2023-03-31T20:57:50.749Z,6.22
2023-03-31T21:02:54.332Z,6.31
2023-03-31T21:07:57.104Z,6.18
2023-03-31T21:13:00.289Z,6.10
2023-03-31T21:18:03.508Z,6.17
2023-03-31T21:23:06.065Z,6.05
2023-03-31T21:28:08.939Z,6.21
2023-03-31T21:33:12.429Z,6.23
2023-03-31T21:38:16.871Z,6.22
2023-03-31T21:43:20.733Z,6.12
2023-03-31T21:48:25.590Z,6.09
2023-03-31T21:53:30.012Z,6.10
2023-03-31T21:58:33.141Z,6.00
2023-03-31T22:03:39.143Z,6.10
2023-03-31T22:08:41.745Z,6.04
2023-03-31T22:13:45.156Z,5.98
2023-03-31T22:18:50.745Z,5.93
2023-03-31T22:23:56.119Z,5.95
2023-03-31T22:28:59.566Z,5.95
2023-03-31T22:34:03.032Z,5.99
2023-03-31T22:39:05.971Z,5.93
2023-03-31T22:44:10.056Z,6.00
2023-03-31T22:49:13.593Z,6.17
2023-03-31T22:54:17.923Z,6.13
2023-03-31T22:59:21.379Z,5.94
2023-03-31T23:04:24.033Z,6.03
2023-03-31T23:09:27.566Z,6.07
2023-03-31T23:14:29.908Z,5.97
2023-03-31T23:19:32.495Z,6.01
2023-03-31T23:24:34.819Z,5.84
2023-03-31T23:29:37.310Z,5.50
2023-03-31T23:34:42.060Z,5.66
2023-03-31T23:39:44.594Z,5.63
2023-03-31T23:44:48.899Z,5.54
2023-03-31T23:49:51.406Z,5.53
2023-03-31T23:54:53.679Z,5.39
2023-03-31T23:59:57.002Z,5.06
